Terminal Aerodrome Forecast
Issued by NWS

Home | Current Version | Previous Version | Text Only | Print | Product List | Glossary On
Versions: 1 2 3 4 5 6 7 8 9 10 11 12 13 14 15 16 17 18 19 20 21 22 23 24 25 26 27 28 29 30 31 32 33
089
FTUS46 KEKA 270243 AAA
TAFCEC
TAF AMD
KCEC 270243Z 2703/2724 23009KT P6SM SCT012 SCT025 BKN035
      TEMPO 2704/2707 19008KT P6SM -SHRA SCT015 OVC030
     FM270700 18008KT P6SM SCT025 BKN050
      TEMPO 2707/2711 6SM -RA BR BKN025
     FM271500 VRB05KT P6SM -SHRA OVC050
     FM271700 27007KT P6SM BKN100=

USA.gov is the U.S. government's official web portal to all federal, state and local government web resources and services.